sensor_id;sensor_type;location;lat;lon;timestamp;P1;durP1;ratioP1;P2;durP2;ratioP2
66143;SDS011;52947;50.842;6.084;2023-02-01T00:00:08;18.77;;;6.43;;
66143;SDS011;52947;50.842;6.084;2023-02-01T00:02:38;22.80;;;7.95;;
66143;SDS011;52947;50.842;6.084;2023-02-01T00:05:09;19.63;;;7.40;;
66143;SDS011;52947;50.842;6.084;2023-02-01T00:07:37;18.17;;;7.22;;
66143;SDS011;52947;50.842;6.084;2023-02-01T00:10:06;17.80;;;8.10;;
66143;SDS011;52947;50.842;6.084;2023-02-01T00:12:34;23.08;;;9.00;;
66143;SDS011;52947;50.842;6.084;2023-02-01T00:15:02;19.80;;;8.70;;
66143;SDS011;52947;50.842;6.084;2023-02-01T00:17:30;25.63;;;10.15;;
66143;SDS011;52947;50.842;6.084;2023-02-01T00:19:58;22.95;;;8.98;;
66143;SDS011;52947;50.842;6.084;2023-02-01T00:22:27;27.27;;;9.23;;
66143;SDS011;52947;50.842;6.084;2023-02-01T00:24:55;18.65;;;8.98;;
66143;SDS011;52947;50.842;6.084;2023-02-01T00:27:23;24.52;;;10.35;;
66143;SDS011;52947;50.842;6.084;2023-02-01T00:29:51;20.40;;;8.07;;
66143;SDS011;52947;50.842;6.084;2023-02-01T00:32:18;28.52;;;10.68;;
66143;SDS011;52947;50.842;6.084;2023-02-01T00:34:46;29.15;;;10.27;;
66143;SDS011;52947;50.842;6.084;2023-02-01T00:37:14;25.33;;;10.45;;
66143;SDS011;52947;50.842;6.084;2023-02-01T00:39:43;21.20;;;11.63;;
66143;SDS011;52947;50.842;6.084;2023-02-01T00:42:11;31.55;;;11.45;;
66143;SDS011;52947;50.842;6.084;2023-02-01T00:44:39;22.20;;;10.77;;
66143;SDS011;52947;50.842;6.084;2023-02-01T00:47:06;30.25;;;11.10;;
66143;SDS011;52947;50.842;6.084;2023-02-01T00:49:34;21.25;;;11.10;;
66143;SDS011;52947;50.842;6.084;2023-02-01T00:52:02;27.27;;;10.35;;
66143;SDS011;52947;50.842;6.084;2023-02-01T00:54:31;28.17;;;9.55;;
66143;SDS011;52947;50.842;6.084;2023-02-01T00:57:01;20.95;;;10.80;;
66143;SDS011;52947;50.842;6.084;2023-02-01T00:59:29;29.50;;;9.85;;
66143;SDS011;52947;50.842;6.084;2023-02-01T01:01:57;26.40;;;10.15;;
66143;SDS011;52947;50.842;6.084;2023-02-01T01:04:24;18.60;;;8.00;;
66143;SDS011;52947;50.842;6.084;2023-02-01T01:06:52;32.00;;;10.43;;
66143;SDS011;52947;50.842;6.084;2023-02-01T01:09:20;22.23;;;10.23;;
66143;SDS011;52947;50.842;6.084;2023-02-01T01:11:48;28.65;;;10.13;;
66143;SDS011;52947;50.842;6.084;2023-02-01T01:16:46;25.13;;;8.68;;
66143;SDS011;52947;50.842;6.084;2023-02-01T01:19:16;20.38;;;8.52;;
66143;SDS011;52947;50.842;6.084;2023-02-01T01:21:44;20.10;;;7.57;;
66143;SDS011;52947;50.842;6.084;2023-02-01T01:24:12;24.52;;;8.00;;
66143;SDS011;52947;50.842;6.084;2023-02-01T01:26:40;19.42;;;8.45;;
66143;SDS011;52947;50.842;6.084;2023-02-01T01:29:08;23.73;;;8.18;;
66143;SDS011;52947;50.842;6.084;2023-02-01T01:31:38;22.65;;;8.27;;
66143;SDS011;52947;50.842;6.084;2023-02-01T01:34:06;24.95;;;7.57;;
66143;SDS011;52947;50.842;6.084;2023-02-01T01:36:35;27.08;;;8.18;;
66143;SDS011;52947;50.842;6.084;2023-02-01T01:39:03;24.88;;;7.18;;
66143;SDS011;52947;50.842;6.084;2023-02-01T01:41:31;19.27;;;6.85;;
66143;SDS011;52947;50.842;6.084;2023-02-01T01:47:11;20.52;;;6.72;;
66143;SDS011;52947;50.842;6.084;2023-02-01T01:49:39;20.50;;;7.07;;
66143;SDS011;52947;50.842;6.084;2023-02-01T01:52:07;19.80;;;8.00;;
66143;SDS011;52947;50.842;6.084;2023-02-01T01:54:37;28.07;;;7.10;;
66143;SDS011;52947;50.842;6.084;2023-02-01T01:57:09;28.48;;;8.05;;
66143;SDS011;52947;50.842;6.084;2023-02-01T01:59:41;21.35;;;8.73;;
66143;SDS011;52947;50.842;6.084;2023-02-01T02:02:15;18.63;;;6.97;;
66143;SDS011;52947;50.842;6.084;2023-02-01T02:04:45;19.02;;;7.15;;
66143;SDS011;52947;50.842;6.084;2023-02-01T02:07:14;18.08;;;6.55;;
66143;SDS011;52947;50.842;6.084;2023-02-01T02:09:46;24.05;;;6.78;;
66143;SDS011;52947;50.842;6.084;2023-02-01T02:12:26;18.30;;;7.25;;
66143;SDS011;52947;50.842;6.084;2023-02-01T02:14:54;23.63;;;7.28;;
66143;SDS011;52947;50.842;6.084;2023-02-01T02:17:26;18.45;;;7.00;;
66143;SDS011;52947;50.842;6.084;2023-02-01T02:20:20;27.63;;;8.30;;
66143;SDS011;52947;50.842;6.084;2023-02-01T02:26:05;23.23;;;7.13;;
66143;SDS011;52947;50.842;6.084;2023-02-01T02:29:07;11.45;;;4.70;;
66143;SDS011;52947;50.842;6.084;2023-02-01T02:32:05;18.40;;;6.47;;
66143;SDS011;52947;50.842;6.084;2023-02-01T02:34:55;19.25;;;6.10;;
66143;SDS011;52947;50.842;6.084;2023-02-01T02:37:26;28.73;;;6.57;;
66143;SDS011;52947;50.842;6.084;2023-02-01T02:40:05;24.83;;;6.65;;
66143;SDS011;52947;50.842;6.084;2023-02-01T02:42:38;23.92;;;5.97;;
66143;SDS011;52947;50.842;6.084;2023-02-01T02:45:28;15.65;;;6.43;;
66143;SDS011;52947;50.842;6.084;2023-02-01T02:48:17;25.33;;;7.30;;
66143;SDS011;52947;50.842;6.084;2023-02-01T02:50:53;22.42;;;7.43;;
66143;SDS011;52947;50.842;6.084;2023-02-01T02:53:47;26.33;;;7.95;;
66143;SDS011;52947;50.842;6.084;2023-02-01T02:56:38;23.90;;;8.43;;
66143;SDS011;52947;50.842;6.084;2023-02-01T02:59:25;35.78;;;9.38;;
66143;SDS011;52947;50.842;6.084;2023-02-01T03:02:12;41.72;;;10.02;;
66143;SDS011;52947;50.842;6.084;2023-02-01T03:04:59;27.83;;;9.30;;
66143;SDS011;52947;50.842;6.084;2023-02-01T03:07:52;23.47;;;8.47;;
66143;SDS011;52947;50.842;6.084;2023-02-01T03:10:27;15.15;;;7.93;;
66143;SDS011;52947;50.842;6.084;2023-02-01T03:13:03;25.00;;;9.25;;
66143;SDS011;52947;50.842;6.084;2023-02-01T03:15:34;30.52;;;8.70;;
66143;SDS011;52947;50.842;6.084;2023-02-01T03:18:06;27.20;;;9.15;;
66143;SDS011;52947;50.842;6.084;2023-02-01T03:20:41;20.17;;;9.10;;
66143;SDS011;52947;50.842;6.084;2023-02-01T03:23:13;22.65;;;9.20;;
66143;SDS011;52947;50.842;6.084;2023-02-01T03:25:43;22.63;;;8.20;;
66143;SDS011;52947;50.842;6.084;2023-02-01T03:28:11;24.30;;;8.20;;
66143;SDS011;52947;50.842;6.084;2023-02-01T03:30:40;23.27;;;7.07;;
66143;SDS011;52947;50.842;6.084;2023-02-01T03:33:11;19.27;;;6.78;;
66143;SDS011;52947;50.842;6.084;2023-02-01T03:35:50;17.40;;;5.88;;
66143;SDS011;52947;50.842;6.084;2023-02-01T03:38:30;31.83;;;6.32;;
66143;SDS011;52947;50.842;6.084;2023-02-01T03:41:04;13.63;;;5.38;;
66143;SDS011;52947;50.842;6.084;2023-02-01T03:43:42;19.70;;;5.40;;
66143;SDS011;52947;50.842;6.084;2023-02-01T03:46:18;14.30;;;5.28;;
66143;SDS011;52947;50.842;6.084;2023-02-01T03:48:52;15.02;;;5.38;;
66143;SDS011;52947;50.842;6.084;2023-02-01T03:51:21;29.73;;;7.43;;
66143;SDS011;52947;50.842;6.084;2023-02-01T03:53:53;18.38;;;5.88;;
66143;SDS011;52947;50.842;6.084;2023-02-01T03:56:22;20.30;;;6.10;;
66143;SDS011;52947;50.842;6.084;2023-02-01T03:58:52;19.33;;;5.68;;
66143;SDS011;52947;50.842;6.084;2023-02-01T04:01:31;25.08;;;5.35;;
66143;SDS011;52947;50.842;6.084;2023-02-01T04:04:00;21.10;;;4.53;;
66143;SDS011;52947;50.842;6.084;2023-02-01T04:06:28;21.17;;;4.93;;
66143;SDS011;52947;50.842;6.084;2023-02-01T04:09:03;23.08;;;4.90;;
66143;SDS011;52947;50.842;6.084;2023-02-01T04:13:58;21.52;;;4.03;;
66143;SDS011;52947;50.842;6.084;2023-02-01T04:16:30;18.65;;;4.43;;
66143;SDS011;52947;50.842;6.084;2023-02-01T04:18:58;15.07;;;4.80;;
66143;SDS011;52947;50.842;6.084;2023-02-01T04:21:26;19.65;;;4.13;;
66143;SDS011;52947;50.842;6.084;2023-02-01T04:23:55;9.77;;;3.57;;
66143;SDS011;52947;50.842;6.084;2023-02-01T04:26:24;19.10;;;4.93;;
66143;SDS011;52947;50.842;6.084;2023-02-01T04:31:20;18.95;;;2.97;;
66143;SDS011;52947;50.842;6.084;2023-02-01T04:33:52;13.55;;;3.58;;
66143;SDS011;52947;50.842;6.084;2023-02-01T04:36:20;13.02;;;3.22;;
66143;SDS011;52947;50.842;6.084;2023-02-01T04:38:49;18.37;;;3.53;;
66143;SDS011;52947;50.842;6.084;2023-02-01T04:41:16;18.20;;;3.15;;
66143;SDS011;52947;50.842;6.084;2023-02-01T04:43:46;16.30;;;3.25;;
66143;SDS011;52947;50.842;6.084;2023-02-01T04:46:14;13.75;;;2.83;;
66143;SDS011;52947;50.842;6.084;2023-02-01T04:48:42;16.70;;;3.17;;
66143;SDS011;52947;50.842;6.084;2023-02-01T04:51:10;15.50;;;3.88;;
66143;SDS011;52947;50.842;6.084;2023-02-01T04:53:38;17.52;;;3.13;;
66143;SDS011;52947;50.842;6.084;2023-02-01T04:56:06;11.43;;;2.97;;
66143;SDS011;52947;50.842;6.084;2023-02-01T04:58:34;14.30;;;2.23;;
66143;SDS011;52947;50.842;6.084;2023-02-01T05:01:03;13.68;;;3.67;;
66143;SDS011;52947;50.842;6.084;2023-02-01T05:03:33;14.90;;;2.90;;
66143;SDS011;52947;50.842;6.084;2023-02-01T05:06:01;20.60;;;3.28;;
66143;SDS011;52947;50.842;6.084;2023-02-01T05:10:58;10.68;;;2.70;;
66143;SDS011;52947;50.842;6.084;2023-02-01T05:13:28;8.60;;;2.28;;
66143;SDS011;52947;50.842;6.084;2023-02-01T05:16:15;22.27;;;3.53;;
66143;SDS011;52947;50.842;6.084;2023-02-01T05:21:11;17.75;;;3.03;;
66143;SDS011;52947;50.842;6.084;2023-02-01T05:23:39;16.15;;;2.33;;
66143;SDS011;52947;50.842;6.084;2023-02-01T05:26:20;9.20;;;2.35;;
66143;SDS011;52947;50.842;6.084;2023-02-01T05:28:48;16.10;;;3.17;;
66143;SDS011;52947;50.842;6.084;2023-02-01T05:31:17;20.73;;;4.38;;
66143;SDS011;52947;50.842;6.084;2023-02-01T05:36:13;20.73;;;3.30;;
66143;SDS011;52947;50.842;6.084;2023-02-01T05:38:41;19.45;;;3.35;;
66143;SDS011;52947;50.842;6.084;2023-02-01T05:41:09;13.55;;;2.72;;
66143;SDS011;52947;50.842;6.084;2023-02-01T05:43:36;13.60;;;2.97;;
66143;SDS011;52947;50.842;6.084;2023-02-01T05:46:04;19.25;;;2.90;;
66143;SDS011;52947;50.842;6.084;2023-02-01T05:48:33;14.15;;;3.10;;
66143;SDS011;52947;50.842;6.084;2023-02-01T05:51:01;20.50;;;3.67;;
66143;SDS011;52947;50.842;6.084;2023-02-01T05:53:29;23.83;;;3.40;;
66143;SDS011;52947;50.842;6.084;2023-02-01T05:55:56;14.70;;;2.40;;
66143;SDS011;52947;50.842;6.084;2023-02-01T05:58:24;10.07;;;3.30;;
66143;SDS011;52947;50.842;6.084;2023-02-01T06:00:52;9.93;;;2.50;;
66143;SDS011;52947;50.842;6.084;2023-02-01T06:03:20;20.55;;;3.40;;
66143;SDS011;52947;50.842;6.084;2023-02-01T06:05:49;24.35;;;3.40;;
66143;SDS011;52947;50.842;6.084;2023-02-01T06:08:17;19.23;;;2.72;;
66143;SDS011;52947;50.842;6.084;2023-02-01T06:10:45;16.00;;;3.78;;
66143;SDS011;52947;50.842;6.084;2023-02-01T06:13:12;13.52;;;3.38;;
66143;SDS011;52947;50.842;6.084;2023-02-01T06:15:40;14.88;;;3.25;;
66143;SDS011;52947;50.842;6.084;2023-02-01T06:18:10;14.20;;;3.70;;
66143;SDS011;52947;50.842;6.084;2023-02-01T06:20:38;14.38;;;3.38;;
66143;SDS011;52947;50.842;6.084;2023-02-01T06:23:07;11.82;;;2.92;;
66143;SDS011;52947;50.842;6.084;2023-02-01T06:25:35;17.20;;;4.10;;
66143;SDS011;52947;50.842;6.084;2023-02-01T06:28:03;22.90;;;3.90;;
66143;SDS011;52947;50.842;6.084;2023-02-01T06:30:32;17.13;;;2.63;;
66143;SDS011;52947;50.842;6.084;2023-02-01T06:33:01;13.80;;;2.78;;
66143;SDS011;52947;50.842;6.084;2023-02-01T06:35:29;15.25;;;3.70;;
66143;SDS011;52947;50.842;6.084;2023-02-01T06:37:57;14.88;;;3.22;;
66143;SDS011;52947;50.842;6.084;2023-02-01T06:40:26;20.92;;;2.95;;
66143;SDS011;52947;50.842;6.084;2023-02-01T06:42:54;23.15;;;3.45;;
66143;SDS011;52947;50.842;6.084;2023-02-01T06:45:21;16.85;;;3.42;;
66143;SDS011;52947;50.842;6.084;2023-02-01T06:47:49;8.10;;;2.25;;
66143;SDS011;52947;50.842;6.084;2023-02-01T06:50:17;23.52;;;3.58;;
66143;SDS011;52947;50.842;6.084;2023-02-01T06:52:45;17.60;;;3.38;;
66143;SDS011;52947;50.842;6.084;2023-02-01T06:55:12;11.30;;;2.65;;
66143;SDS011;52947;50.842;6.084;2023-02-01T06:57:42;16.45;;;3.58;;
66143;SDS011;52947;50.842;6.084;2023-02-01T07:00:10;17.50;;;3.90;;
66143;SDS011;52947;50.842;6.084;2023-02-01T07:02:38;17.98;;;2.47;;
66143;SDS011;52947;50.842;6.084;2023-02-01T07:05:06;19.52;;;3.05;;
66143;SDS011;52947;50.842;6.084;2023-02-01T07:07:34;9.25;;;2.47;;
66143;SDS011;52947;50.842;6.084;2023-02-01T07:10:02;15.18;;;2.78;;
66143;SDS011;52947;50.842;6.084;2023-02-01T07:12:30;13.77;;;2.60;;
66143;SDS011;52947;50.842;6.084;2023-02-01T07:15:00;15.73;;;3.45;;
66143;SDS011;52947;50.842;6.084;2023-02-01T07:17:28;22.45;;;3.22;;
66143;SDS011;52947;50.842;6.084;2023-02-01T07:19:56;16.90;;;3.03;;
66143;SDS011;52947;50.842;6.084;2023-02-01T07:24:53;17.80;;;3.58;;
66143;SDS011;52947;50.842;6.084;2023-02-01T07:27:21;19.85;;;3.13;;
66143;SDS011;52947;50.842;6.084;2023-02-01T07:29:51;16.20;;;2.97;;
66143;SDS011;52947;50.842;6.084;2023-02-01T07:32:20;11.50;;;2.50;;
66143;SDS011;52947;50.842;6.084;2023-02-01T07:34:48;18.27;;;3.67;;
66143;SDS011;52947;50.842;6.084;2023-02-01T07:37:16;11.70;;;3.17;;
66143;SDS011;52947;50.842;6.084;2023-02-01T07:39:44;25.47;;;3.80;;
66143;SDS011;52947;50.842;6.084;2023-02-01T07:42:12;15.95;;;3.25;;
66143;SDS011;52947;50.842;6.084;2023-02-01T07:44:40;20.05;;;3.63;;
66143;SDS011;52947;50.842;6.084;2023-02-01T07:47:07;17.83;;;3.35;;
66143;SDS011;52947;50.842;6.084;2023-02-01T07:49:37;9.43;;;3.17;;
66143;SDS011;52947;50.842;6.084;2023-02-01T07:52:04;12.52;;;2.67;;
66143;SDS011;52947;50.842;6.084;2023-02-01T07:54:32;16.88;;;3.83;;
66143;SDS011;52947;50.842;6.084;2023-02-01T07:57:00;24.65;;;4.45;;
66143;SDS011;52947;50.842;6.084;2023-02-01T07:59:28;14.73;;;2.88;;
66143;SDS011;52947;50.842;6.084;2023-02-01T08:01:55;10.68;;;2.70;;
66143;SDS011;52947;50.842;6.084;2023-02-01T08:04:22;19.75;;;3.33;;
66143;SDS011;52947;50.842;6.084;2023-02-01T08:06:51;20.45;;;3.65;;
66143;SDS011;52947;50.842;6.084;2023-02-01T08:09:19;22.60;;;3.95;;
66143;SDS011;52947;50.842;6.084;2023-02-01T08:11:47;25.38;;;3.45;;
66143;SDS011;52947;50.842;6.084;2023-02-01T08:14:15;11.57;;;2.88;;
66143;SDS011;52947;50.842;6.084;2023-02-01T08:16:42;13.50;;;2.47;;
66143;SDS011;52947;50.842;6.084;2023-02-01T08:19:10;13.55;;;3.13;;
66143;SDS011;52947;50.842;6.084;2023-02-01T08:21:38;19.35;;;3.22;;
66143;SDS011;52947;50.842;6.084;2023-02-01T08:24:08;19.00;;;2.90;;
66143;SDS011;52947;50.842;6.084;2023-02-01T08:26:37;20.98;;;3.17;;
66143;SDS011;52947;50.842;6.084;2023-02-01T08:29:05;18.48;;;3.20;;
66143;SDS011;52947;50.842;6.084;2023-02-01T08:31:38;16.35;;;2.88;;
66143;SDS011;52947;50.842;6.084;2023-02-01T08:34:08;14.43;;;3.10;;
66143;SDS011;52947;50.842;6.084;2023-02-01T08:36:38;23.35;;;3.13;;
66143;SDS011;52947;50.842;6.084;2023-02-01T08:39:08;13.93;;;2.72;;
66143;SDS011;52947;50.842;6.084;2023-02-01T08:41:36;15.70;;;3.45;;
66143;SDS011;52947;50.842;6.084;2023-02-01T08:44:05;16.55;;;4.03;;
66143;SDS011;52947;50.842;6.084;2023-02-01T08:46:33;16.08;;;3.05;;
66143;SDS011;52947;50.842;6.084;2023-02-01T08:49:00;10.40;;;3.00;;
66143;SDS011;52947;50.842;6.084;2023-02-01T08:51:28;14.77;;;3.42;;
66143;SDS011;52947;50.842;6.084;2023-02-01T08:53:56;13.65;;;2.85;;
66143;SDS011;52947;50.842;6.084;2023-02-01T08:56:25;12.07;;;2.30;;
66143;SDS011;52947;50.842;6.084;2023-02-01T08:58:53;18.20;;;2.83;;
66143;SDS011;52947;50.842;6.084;2023-02-01T09:01:21;16.90;;;2.90;;
66143;SDS011;52947;50.842;6.084;2023-02-01T09:03:49;13.05;;;2.63;;
66143;SDS011;52947;50.842;6.084;2023-02-01T09:06:16;16.85;;;3.05;;
66143;SDS011;52947;50.842;6.084;2023-02-01T09:08:44;18.33;;;3.88;;
66143;SDS011;52947;50.842;6.084;2023-02-01T09:11:13;15.73;;;3.20;;
66143;SDS011;52947;50.842;6.084;2023-02-01T09:13:43;12.40;;;2.95;;
66143;SDS011;52947;50.842;6.084;2023-02-01T09:16:11;18.05;;;3.47;;
66143;SDS011;52947;50.842;6.084;2023-02-01T09:18:39;12.68;;;2.90;;
66143;SDS011;52947;50.842;6.084;2023-02-01T09:21:21;17.33;;;3.75;;
66143;SDS011;52947;50.842;6.084;2023-02-01T09:23:50;14.77;;;2.88;;
66143;SDS011;52947;50.842;6.084;2023-02-01T09:26:18;17.08;;;3.15;;
66143;SDS011;52947;50.842;6.084;2023-02-01T09:28:58;12.65;;;2.90;;
66143;SDS011;52947;50.842;6.084;2023-02-01T09:33:54;16.60;;;3.47;;
66143;SDS011;52947;50.842;6.084;2023-02-01T09:36:22;10.65;;;2.75;;
66143;SDS011;52947;50.842;6.084;2023-02-01T09:38:50;8.95;;;2.45;;
66143;SDS011;52947;50.842;6.084;2023-02-01T09:41:21;18.13;;;3.15;;
66143;SDS011;52947;50.842;6.084;2023-02-01T09:43:59;20.23;;;3.22;;
66143;SDS011;52947;50.842;6.084;2023-02-01T09:46:34;14.95;;;2.72;;
66143;SDS011;52947;50.842;6.084;2023-02-01T09:49:03;14.90;;;2.90;;
66143;SDS011;52947;50.842;6.084;2023-02-01T09:51:34;13.40;;;3.22;;
66143;SDS011;52947;50.842;6.084;2023-02-01T09:54:05;16.55;;;3.13;;
66143;SDS011;52947;50.842;6.084;2023-02-01T09:56:39;17.55;;;3.35;;
66143;SDS011;52947;50.842;6.084;2023-02-01T09:59:16;16.77;;;3.03;;
66143;SDS011;52947;50.842;6.084;2023-02-01T10:01:53;20.83;;;3.80;;
66143;SDS011;52947;50.842;6.084;2023-02-01T10:04:21;18.55;;;3.03;;
66143;SDS011;52947;50.842;6.084;2023-02-01T10:06:55;21.90;;;3.60;;
66143;SDS011;52947;50.842;6.084;2023-02-01T10:09:33;10.20;;;2.08;;
66143;SDS011;52947;50.842;6.084;2023-02-01T10:12:28;15.93;;;3.65;;
66143;SDS011;52947;50.842;6.084;2023-02-01T10:15:15;19.38;;;3.05;;
66143;SDS011;52947;50.842;6.084;2023-02-01T10:17:56;9.77;;;2.95;;
66143;SDS011;52947;50.842;6.084;2023-02-01T10:20:43;11.82;;;3.10;;
66143;SDS011;52947;50.842;6.084;2023-02-01T10:23:27;14.88;;;2.75;;
66143;SDS011;52947;50.842;6.084;2023-02-01T10:26:08;20.95;;;3.25;;
66143;SDS011;52947;50.842;6.084;2023-02-01T10:28:45;13.73;;;3.97;;
66143;SDS011;52947;50.842;6.084;2023-02-01T10:31:17;11.13;;;2.78;;
66143;SDS011;52947;50.842;6.084;2023-02-01T10:33:47;15.30;;;3.10;;
66143;SDS011;52947;50.842;6.084;2023-02-01T10:36:19;10.85;;;2.95;;
66143;SDS011;52947;50.842;6.084;2023-02-01T10:38:50;17.65;;;3.40;;
66143;SDS011;52947;50.842;6.084;2023-02-01T10:41:19;16.52;;;2.92;;
66143;SDS011;52947;50.842;6.084;2023-02-01T10:43:49;16.55;;;3.65;;
66143;SDS011;52947;50.842;6.084;2023-02-01T10:46:22;14.20;;;2.53;;
66143;SDS011;52947;50.842;6.084;2023-02-01T10:48:50;8.23;;;2.58;;
66143;SDS011;52947;50.842;6.084;2023-02-01T10:51:23;12.63;;;2.92;;
66143;SDS011;52947;50.842;6.084;2023-02-01T10:53:55;17.58;;;3.60;;
66143;SDS011;52947;50.842;6.084;2023-02-01T10:56:26;13.85;;;2.63;;
66143;SDS011;52947;50.842;6.084;2023-02-01T10:58:59;14.68;;;3.00;;
66143;SDS011;52947;50.842;6.084;2023-02-01T11:01:33;13.55;;;2.78;;
66143;SDS011;52947;50.842;6.084;2023-02-01T11:04:05;22.08;;;4.20;;
66143;SDS011;52947;50.842;6.084;2023-02-01T11:06:35;11.57;;;3.20;;
66143;SDS011;52947;50.842;6.084;2023-02-01T11:09:09;11.05;;;3.03;;
66143;SDS011;52947;50.842;6.084;2023-02-01T11:11:52;13.90;;;2.95;;
66143;SDS011;52947;50.842;6.084;2023-02-01T11:14:26;22.30;;;3.35;;
66143;SDS011;52947;50.842;6.084;2023-02-01T11:16:57;13.55;;;3.00;;
66143;SDS011;52947;50.842;6.084;2023-02-01T11:19:26;13.23;;;2.92;;
66143;SDS011;52947;50.842;6.084;2023-02-01T11:21:55;17.80;;;3.08;;
66143;SDS011;52947;50.842;6.084;2023-02-01T11:24:25;20.02;;;3.53;;
66143;SDS011;52947;50.842;6.084;2023-02-01T11:26:56;12.88;;;2.92;;
66143;SDS011;52947;50.842;6.084;2023-02-01T11:29:25;19.00;;;3.13;;
66143;SDS011;52947;50.842;6.084;2023-02-01T11:31:59;10.68;;;2.60;;
66143;SDS011;52947;50.842;6.084;2023-02-01T11:34:36;18.05;;;2.90;;
66143;SDS011;52947;50.842;6.084;2023-02-01T11:37:09;17.60;;;2.80;;
66143;SDS011;52947;50.842;6.084;2023-02-01T11:39:44;18.42;;;3.42;;
66143;SDS011;52947;50.842;6.084;2023-02-01T11:42:21;14.60;;;2.15;;
66143;SDS011;52947;50.842;6.084;2023-02-01T11:44:49;11.27;;;3.35;;
66143;SDS011;52947;50.842;6.084;2023-02-01T11:47:22;21.10;;;3.33;;
66143;SDS011;52947;50.842;6.084;2023-02-01T11:49:52;7.95;;;2.05;;
66143;SDS011;52947;50.842;6.084;2023-02-01T11:52:25;14.52;;;2.30;;
66143;SDS011;52947;50.842;6.084;2023-02-01T11:55:15;20.65;;;3.45;;
66143;SDS011;52947;50.842;6.084;2023-02-01T11:57:55;16.00;;;3.20;;
66143;SDS011;52947;50.842;6.084;2023-02-01T12:00:40;10.07;;;2.30;;
66143;SDS011;52947;50.842;6.084;2023-02-01T12:06:35;9.95;;;2.60;;
66143;SDS011;52947;50.842;6.084;2023-02-01T12:11:48;11.70;;;2.33;;
66143;SDS011;52947;50.842;6.084;2023-02-01T12:14:30;15.43;;;2.65;;
66143;SDS011;52947;50.842;6.084;2023-02-01T12:20:14;17.90;;;2.75;;
66143;SDS011;52947;50.842;6.084;2023-02-01T12:22:55;11.98;;;2.55;;
66143;SDS011;52947;50.842;6.084;2023-02-01T12:25:34;16.98;;;3.33;;
66143;SDS011;52947;50.842;6.084;2023-02-01T12:28:18;15.73;;;3.55;;
66143;SDS011;52947;50.842;6.084;2023-02-01T12:31:04;12.15;;;2.33;;
66143;SDS011;52947;50.842;6.084;2023-02-01T12:33:54;13.32;;;2.63;;
66143;SDS011;52947;50.842;6.084;2023-02-01T12:36:40;14.52;;;2.80;;
66143;SDS011;52947;50.842;6.084;2023-02-01T12:39:17;12.77;;;2.65;;
66143;SDS011;52947;50.842;6.084;2023-02-01T12:41:56;13.65;;;3.15;;
66143;SDS011;52947;50.842;6.084;2023-02-01T12:44:31;15.40;;;2.78;;
66143;SDS011;52947;50.842;6.084;2023-02-01T12:47:05;11.38;;;2.92;;
66143;SDS011;52947;50.842;6.084;2023-02-01T12:49:45;12.73;;;2.53;;
66143;SDS011;52947;50.842;6.084;2023-02-01T12:52:18;12.75;;;2.80;;
66143;SDS011;52947;50.842;6.084;2023-02-01T12:54:52;8.85;;;2.47;;
66143;SDS011;52947;50.842;6.084;2023-02-01T12:57:26;11.30;;;2.58;;
66143;SDS011;52947;50.842;6.084;2023-02-01T12:59:56;15.65;;;2.90;;
66143;SDS011;52947;50.842;6.084;2023-02-01T13:02:34;13.52;;;2.63;;
66143;SDS011;52947;50.842;6.084;2023-02-01T13:05:12;12.63;;;2.58;;
66143;SDS011;52947;50.842;6.084;2023-02-01T13:07:47;12.80;;;3.30;;
66143;SDS011;52947;50.842;6.084;2023-02-01T13:10:21;8.45;;;2.17;;
66143;SDS011;52947;50.842;6.084;2023-02-01T13:12:53;15.18;;;2.55;;
66143;SDS011;52947;50.842;6.084;2023-02-01T13:15:27;12.82;;;2.58;;
66143;SDS011;52947;50.842;6.084;2023-02-01T13:18:00;8.65;;;2.28;;
66143;SDS011;52947;50.842;6.084;2023-02-01T13:20:33;12.77;;;2.35;;
66143;SDS011;52947;50.842;6.084;2023-02-01T13:23:08;10.57;;;2.10;;
66143;SDS011;52947;50.842;6.084;2023-02-01T13:25:50;9.75;;;2.03;;
66143;SDS011;52947;50.842;6.084;2023-02-01T13:28:21;7.72;;;1.92;;
66143;SDS011;52947;50.842;6.084;2023-02-01T13:34:26;9.50;;;2.13;;
66143;SDS011;52947;50.842;6.084;2023-02-01T13:37:18;8.93;;;1.95;;
66143;SDS011;52947;50.842;6.084;2023-02-01T13:42:57;8.43;;;2.10;;
66143;SDS011;52947;50.842;6.084;2023-02-01T13:45:27;10.90;;;2.30;;
66143;SDS011;52947;50.842;6.084;2023-02-01T13:47:59;7.65;;;2.22;;
66143;SDS011;52947;50.842;6.084;2023-02-01T13:50:31;14.52;;;2.33;;
66143;SDS011;52947;50.842;6.084;2023-02-01T13:53:04;14.70;;;2.20;;
66143;SDS011;52947;50.842;6.084;2023-02-01T13:55:43;8.32;;;2.50;;
66143;SDS011;52947;50.842;6.084;2023-02-01T13:58:19;9.73;;;2.05;;
66143;SDS011;52947;50.842;6.084;2023-02-01T14:00:48;11.23;;;2.50;;
66143;SDS011;52947;50.842;6.084;2023-02-01T14:09:12;9.60;;;2.00;;
66143;SDS011;52947;50.842;6.084;2023-02-01T14:11:57;11.20;;;1.92;;
66143;SDS011;52947;50.842;6.084;2023-02-01T14:14:49;10.73;;;2.10;;
66143;SDS011;52947;50.842;6.084;2023-02-01T14:23:25;7.90;;;2.10;;
66143;SDS011;52947;50.842;6.084;2023-02-01T14:28:46;9.35;;;2.30;;
66143;SDS011;52947;50.842;6.084;2023-02-01T14:31:33;10.60;;;2.28;;
66143;SDS011;52947;50.842;6.084;2023-02-01T14:34:10;12.00;;;2.33;;
66143;SDS011;52947;50.842;6.084;2023-02-01T14:36:43;6.68;;;2.00;;
66143;SDS011;52947;50.842;6.084;2023-02-01T14:39:20;10.60;;;1.92;;
66143;SDS011;52947;50.842;6.084;2023-02-01T14:41:52;10.85;;;2.50;;
66143;SDS011;52947;50.842;6.084;2023-02-01T14:44:29;12.32;;;1.95;;
66143;SDS011;52947;50.842;6.084;2023-02-01T14:47:08;8.82;;;1.98;;
66143;SDS011;52947;50.842;6.084;2023-02-01T14:49:53;12.15;;;2.60;;
66143;SDS011;52947;50.842;6.084;2023-02-01T14:52:28;16.05;;;2.53;;
66143;SDS011;52947;50.842;6.084;2023-02-01T14:55:00;12.48;;;2.20;;
66143;SDS011;52947;50.842;6.084;2023-02-01T14:57:33;9.15;;;2.33;;
66143;SDS011;52947;50.842;6.084;2023-02-01T15:00:14;9.95;;;2.20;;
66143;SDS011;52947;50.842;6.084;2023-02-01T15:02:47;14.23;;;2.75;;
66143;SDS011;52947;50.842;6.084;2023-02-01T15:05:24;11.73;;;2.33;;
66143;SDS011;52947;50.842;6.084;2023-02-01T15:07:57;9.25;;;1.88;;
66143;SDS011;52947;50.842;6.084;2023-02-01T15:10:30;5.25;;;1.38;;
66143;SDS011;52947;50.842;6.084;2023-02-01T15:13:00;10.98;;;2.22;;
66143;SDS011;52947;50.842;6.084;2023-02-01T15:15:27;5.32;;;2.28;;
66143;SDS011;52947;50.842;6.084;2023-02-01T15:18:01;7.25;;;1.55;;
66143;SDS011;52947;50.842;6.084;2023-02-01T15:20:30;8.32;;;2.30;;
66143;SDS011;52947;50.842;6.084;2023-02-01T15:23:00;9.70;;;1.85;;
66143;SDS011;52947;50.842;6.084;2023-02-01T15:27:57;9.93;;;1.70;;
66143;SDS011;52947;50.842;6.084;2023-02-01T15:30:26;7.90;;;2.22;;
66143;SDS011;52947;50.842;6.084;2023-02-01T15:33:05;10.40;;;2.10;;
66143;SDS011;52947;50.842;6.084;2023-02-01T15:35:35;11.60;;;2.13;;
66143;SDS011;52947;50.842;6.084;2023-02-01T15:41:11;7.20;;;1.98;;
66143;SDS011;52947;50.842;6.084;2023-02-01T15:43:42;9.60;;;2.28;;
66143;SDS011;52947;50.842;6.084;2023-02-01T15:46:15;6.53;;;1.80;;
66143;SDS011;52947;50.842;6.084;2023-02-01T15:48:47;9.63;;;2.17;;
66143;SDS011;52947;50.842;6.084;2023-02-01T15:51:18;11.65;;;2.00;;
66143;SDS011;52947;50.842;6.084;2023-02-01T15:53:50;12.38;;;2.40;;
66143;SDS011;52947;50.842;6.084;2023-02-01T15:56:21;11.70;;;2.00;;
66143;SDS011;52947;50.842;6.084;2023-02-01T15:58:51;13.77;;;2.92;;
66143;SDS011;52947;50.842;6.084;2023-02-01T16:01:22;12.15;;;2.20;;
66143;SDS011;52947;50.842;6.084;2023-02-01T16:04:02;13.98;;;2.80;;
66143;SDS011;52947;50.842;6.084;2023-02-01T16:06:44;16.33;;;2.58;;